Terminal Aerodrome Forecast
Issued by NWS Cleveland, OH

Home | Current Version | Previous Version | Graphics & Text | Print | Product List | Glossary On
Versions: 1 2 3 4 5 6 7 8 9 10 11 12 13 14 15 16 17 18 19 20 21 22
000
FTUS41 KCLE 200300 AAA
TAFMFD
TAF AMD
KMFD 200307Z 2003/2024 20004KT P6SM VCSH BKN050
     FM200600 22004KT 5SM BR BKN050
      TEMPO 2006/2008 3SM SHRA
     FM200900 20004KT 1 1/2SM BR BKN015
     FM201300 25006KT 4SM BR SCT025 BKN100
     FM201500 27010KT P6SM BKN100=

USA.gov is the U.S. government's official web portal to all federal, state and local government web resources and services.